Terminal Aerodrome Forecast
Issued by NWS

Home | Current Version | Previous Version | Text Only | Print | Product List | Glossary Off
Versions: 1 2 3 4 5 6 7 8 9 10 11 12 13 14 15 16 17 18 19 20 21 22 23 24 25 26 27

523
FTUS43 KABR 161125
TAFATY
TAF
KATY 161125Z 1612/1712 12008KT 3SM BR OVC002
     FM161700 15019G30KT P6SM BKN250
     FM170700 17013KT P6SM BKN100=

USA.gov is the U.S. government's official web portal to all federal, state and local government web resources and services.